createdAt,value
2019-03-22T00:00:59.012Z,0.09
2019-03-22T00:02:00.352Z,0.09
2019-03-22T00:03:00.690Z,0.09
2019-03-22T00:04:01.197Z,0.09
2019-03-22T00:05:02.136Z,0.09
2019-03-22T00:06:02.512Z,0.09
2019-03-22T00:07:02.744Z,0.09
2019-03-22T00:08:03.653Z,0.09
2019-03-22T00:09:03.636Z,0.09
2019-03-22T00:10:04.462Z,0.09
2019-03-22T00:11:04.604Z,0.09
2019-03-22T00:12:04.367Z,0.09
2019-03-22T00:13:04.025Z,0.09
2019-03-22T00:14:05.479Z,0.09
2019-03-22T00:15:06.748Z,0.09
2019-03-22T00:16:05.338Z,0.09
2019-03-22T00:17:05.513Z,0.09
2019-03-22T00:17:14.743Z,0.09
2019-03-22T00:18:15.684Z,0.09
2019-03-22T00:19:15.919Z,0.09
2019-03-22T00:20:16.923Z,0.09
2019-03-22T00:21:17.797Z,0.09
2019-03-22T00:22:17.802Z,0.09
2019-03-22T00:23:18.711Z,0.09
2019-03-22T00:24:19.230Z,0.09
2019-03-22T00:25:19.936Z,0.09
2019-03-22T00:26:20.738Z,0.09
2019-03-22T00:27:21.709Z,0.09
2019-03-22T00:28:22.595Z,0.09
2019-03-22T00:29:22.753Z,0.09
2019-03-22T00:30:23.722Z,0.09
2019-03-22T00:31:23.937Z,0.09
2019-03-22T00:32:23.547Z,0.09
2019-03-22T00:33:25.523Z,0.09
2019-03-22T00:34:25.708Z,0.09
2019-03-22T00:35:26.110Z,0.09
2019-03-22T00:36:26.282Z,0.09
2019-03-22T00:37:25.712Z,0.09
2019-03-22T00:38:25.597Z,0.09
2019-03-22T00:39:27.590Z,0.09
2019-03-22T00:40:27.701Z,0.09
2019-03-22T00:41:28.661Z,0.09
2019-03-22T00:42:29.136Z,0.09
2019-03-22T00:43:29.349Z,0.09
2019-03-22T00:44:29.234Z,0.09
2019-03-22T00:45:30.763Z,0.09
2019-03-22T00:46:31.131Z,0.09
2019-03-22T00:47:30.226Z,0.09
2019-03-22T00:48:31.463Z,0.09
2019-03-22T00:49:32.462Z,0.09
2019-03-22T00:50:32.553Z,0.09
2019-03-22T00:51:33.534Z,0.09
2019-03-22T00:52:34.344Z,0.09
2019-03-22T00:53:35.162Z,0.09
2019-03-22T00:54:35.437Z,0.09
2019-03-22T00:55:34.608Z,0.09
2019-03-22T00:56:36.395Z,0.09
2019-03-22T00:57:36.576Z,0.09
2019-03-22T00:58:37.501Z,0.09
2019-03-22T00:59:38.499Z,0.09
2019-03-22T01:00:38.767Z,0.09
2019-03-22T01:01:39.396Z,0.09
2019-03-22T01:02:38.583Z,0.09
2019-03-22T01:03:40.412Z,0.09
2019-03-22T01:04:40.541Z,0.09
2019-03-22T01:05:41.083Z,0.09
2019-03-22T01:05:49.705Z,0.09
2019-03-22T01:06:51.093Z,0.09
2019-03-22T01:07:51.963Z,0.09
2019-03-22T01:08:52.349Z,0.09
2019-03-22T01:09:52.301Z,0.09
2019-03-22T01:10:52.470Z,0.09
2019-03-22T01:11:53.004Z,0.09
2019-03-22T01:12:53.136Z,0.09
2019-03-22T01:13:53.991Z,0.09
2019-03-22T01:14:53.330Z,0.09
2019-03-22T01:15:54.504Z,0.09
2019-03-22T01:16:54.615Z,0.09
2019-03-22T01:17:54.774Z,0.09
2019-03-22T01:18:54.648Z,0.09
2019-03-22T01:19:54.467Z,0.09
2019-03-22T01:20:56.322Z,0.09
2019-03-22T01:21:56.830Z,0.09
2019-03-22T01:22:56.629Z,0.09
2019-03-22T01:23:59.868Z,0.09
2019-03-22T01:24:57.240Z,0.09
2019-03-22T01:25:57.409Z,0.09
2019-03-22T01:26:57.833Z,0.09
2019-03-22T01:27:58.529Z,0.09
2019-03-22T01:28:59.216Z,0.09
2019-03-22T01:29:59.880Z,0.05
2019-03-22T01:31:00.009Z,0.05
2019-03-22T01:32:00.265Z,0.09
2019-03-22T01:33:00.989Z,0.09
2019-03-22T01:34:01.044Z,0.09
2019-03-22T01:35:01.566Z,0.09
2019-03-22T01:36:02.053Z,0.09
2019-03-22T01:37:03.062Z,0.09
2019-03-22T01:38:04.694Z,0.09
2019-03-22T01:39:05.283Z,0.09
2019-03-22T01:40:04.786Z,0.09
2019-03-22T01:41:05.114Z,0.09
2019-03-22T01:42:05.736Z,0.09
2019-03-22T01:43:06.344Z,0.09
2019-03-22T01:44:06.388Z,0.09
2019-03-22T01:45:06.693Z,0.09
2019-03-22T01:46:07.094Z,0.09
2019-03-22T01:47:07.084Z,0.09
2019-03-22T01:48:08.945Z,0.09
2019-03-22T01:49:09.794Z,0.09
2019-03-22T01:50:10.091Z,0.09
2019-03-22T01:51:09.283Z,0.09
2019-03-22T01:52:09.509Z,0.09
2019-03-22T01:53:10.039Z,0.09
2019-03-22T01:54:10.761Z,0.09
2019-03-22T01:55:11.707Z,0.09
2019-03-22T01:56:12.022Z,0.09
2019-03-22T01:57:12.343Z,0.09
2019-03-22T01:58:12.328Z,0.09
2019-03-22T01:59:13.119Z,0.09
2019-03-22T02:00:14.070Z,0.09
2019-03-22T02:01:14.789Z,0.09
2019-03-22T02:02:15.736Z,0.09
2019-03-22T02:03:16.125Z,0.09
2019-03-22T02:04:16.428Z,0.09
2019-03-22T02:05:17.018Z,0.09
2019-03-22T02:06:17.126Z,0.09
2019-03-22T02:07:17.543Z,0.09
2019-03-22T02:08:18.097Z,0.09
2019-03-22T02:09:18.680Z,0.09
2019-03-22T02:10:19.055Z,0.09
2019-03-22T02:11:19.203Z,0.09
2019-03-22T02:12:19.448Z,0.09
2019-03-22T02:13:20.924Z,0.09
2019-03-22T02:14:20.508Z,0.09
2019-03-22T02:15:20.385Z,0.09
2019-03-22T02:16:21.472Z,0.09
2019-03-22T02:17:22.567Z,0.09
2019-03-22T02:18:21.478Z,0.09
2019-03-22T02:19:22.000Z,0.09
2019-03-22T02:20:21.996Z,0.09
2019-03-22T02:21:22.774Z,0.09
2019-03-22T02:22:24.793Z,0.09
2019-03-22T02:23:24.846Z,0.09
2019-03-22T02:24:25.761Z,0.09
2019-03-22T02:25:26.592Z,0.05
2019-03-22T02:26:26.812Z,0.05
2019-03-22T02:27:27.777Z,0.05
2019-03-22T02:28:27.927Z,0.05
2019-03-22T02:29:28.805Z,0.05
2019-03-22T02:30:28.900Z,0.05
2019-03-22T02:31:28.809Z,0.05
2019-03-22T02:31:37.830Z,0.05
2019-03-22T02:32:39.625Z,0.05
2019-03-22T02:33:40.582Z,0.05
2019-03-22T02:34:41.429Z,0.05
2019-03-22T02:35:40.490Z,0.05
2019-03-22T02:36:42.447Z,0.05
2019-03-22T02:37:43.452Z,0.05
2019-03-22T02:38:44.242Z,0.05
2019-03-22T02:39:44.445Z,0.05
2019-03-22T02:40:44.097Z,0.05
2019-03-22T02:41:45.161Z,0.05
2019-03-22T02:42:45.437Z,0.05
2019-03-22T02:43:45.385Z,0.05
2019-03-22T02:44:46.303Z,0.05
2019-03-22T02:45:48.268Z,0.05
2019-03-22T02:46:48.548Z,0.05
2019-03-22T02:47:48.716Z,0.05
2019-03-22T02:48:49.549Z,0.05
2019-03-22T02:49:50.463Z,0.05
2019-03-22T02:50:50.503Z,0.05
2019-03-22T02:51:51.419Z,0.05
2019-03-22T02:52:51.512Z,0.05
2019-03-22T02:53:51.662Z,0.05
2019-03-22T02:54:52.652Z,0.05
2019-03-22T02:55:53.706Z,0.05
2019-03-22T02:56:53.341Z,0.05
2019-03-22T02:57:55.145Z,0.05
2019-03-22T02:58:59.068Z,0.05
2019-03-22T02:59:55.382Z,0.05
2019-03-22T03:00:57.225Z,0.05
2019-03-22T03:01:57.385Z,0.05
2019-03-22T03:02:58.189Z,0.05
2019-03-22T03:03:59.033Z,0.05
2019-03-22T03:04:59.177Z,0.05
2019-03-22T03:05:59.206Z,0.05
2019-03-22T03:06:59.224Z,0.05
2019-03-22T03:07:59.299Z,0.05
2019-03-22T03:09:00.073Z,0.05
2019-03-22T03:10:00.380Z,0.05
2019-03-22T03:10:59.223Z,0.05
2019-03-22T03:12:00.528Z,0.05
2019-03-22T03:13:01.353Z,0.05
2019-03-22T03:14:02.123Z,0.05
2019-03-22T03:15:03.077Z,0.05
2019-03-22T03:16:03.936Z,0.05
2019-03-22T03:17:03.818Z,0.05
2019-03-22T03:17:12.860Z,0.05
2019-03-22T03:18:14.730Z,0.05
2019-03-22T03:19:15.605Z,0.05
2019-03-22T03:20:16.492Z,0.05
2019-03-22T03:21:16.739Z,0.05
2019-03-22T03:22:16.881Z,0.05
2019-03-22T03:23:17.079Z,0.05
2019-03-22T03:24:18.090Z,0.05
2019-03-22T03:25:18.280Z,0.05
2019-03-22T03:26:19.275Z,0.05
2019-03-22T03:27:19.293Z,0.05
2019-03-22T03:28:35.625Z,0.05
2019-03-22T03:29:20.209Z,0.05
2019-03-22T03:30:22.191Z,0.05
2019-03-22T03:31:21.691Z,0.05
2019-03-22T03:32:22.789Z,0.05
2019-03-22T03:33:23.312Z,0.05
2019-03-22T03:34:23.412Z,0.05
2019-03-22T03:35:24.142Z,0.05
2019-03-22T03:36:25.138Z,0.05
2019-03-22T03:37:26.021Z,0.05
2019-03-22T03:38:26.840Z,0.05
2019-03-22T03:39:27.664Z,0.05
2019-03-22T03:40:27.734Z,0.05
2019-03-22T03:41:28.591Z,0.05
2019-03-22T03:42:29.360Z,0.05
2019-03-22T03:43:30.157Z,0.05
2019-03-22T03:44:30.880Z,0.05
2019-03-22T03:45:31.610Z,0.05
2019-03-22T03:46:31.648Z,0.05
2019-03-22T03:47:32.607Z,0.05
2019-03-22T03:48:33.527Z,0.05
2019-03-22T03:49:34.473Z,0.05
2019-03-22T03:50:35.337Z,0.05
2019-03-22T03:51:36.143Z,0.05
2019-03-22T03:52:39.476Z,0.05
2019-03-22T03:53:36.355Z,0.05
2019-03-22T03:54:38.155Z,0.05
2019-03-22T03:55:38.234Z,0.05
2019-03-22T03:56:38.414Z,0.05
2019-03-22T03:57:38.529Z,0.05
2019-03-22T03:58:51.459Z,0.05
2019-03-22T03:59:38.481Z,0.05
2019-03-22T04:00:39.715Z,0.05
2019-03-22T04:01:40.410Z,0.05
2019-03-22T04:02:41.264Z,0.05
2019-03-22T04:02:49.800Z,0.05
2019-03-22T04:03:51.656Z,0.05
2019-03-22T04:04:52.521Z,0.05
2019-03-22T04:05:53.384Z,0.05
2019-03-22T04:06:54.258Z,0.05
2019-03-22T04:07:55.016Z,0.05
2019-03-22T04:08:55.121Z,0.05
2019-03-22T04:09:55.769Z,0.05
2019-03-22T04:10:56.702Z,0.05
2019-03-22T04:11:57.612Z,0.05
2019-03-22T04:12:58.484Z,0.05
2019-03-22T04:13:59.312Z,0.05
2019-03-22T04:14:59.354Z,0.05
2019-03-22T04:16:00.121Z,0.05
2019-03-22T04:17:01.043Z,0.05
2019-03-22T04:18:01.310Z,0.05
2019-03-22T04:19:01.345Z,0.05
2019-03-22T04:20:02.292Z,0.05
2019-03-22T04:21:03.124Z,0.05
2019-03-22T04:22:03.024Z,0.05
2019-03-22T04:23:04.920Z,0.05
2019-03-22T04:24:05.832Z,0.05
2019-03-22T04:25:06.668Z,0.05
2019-03-22T04:26:07.533Z,0.05
2019-03-22T04:27:07.966Z,0.05
2019-03-22T04:28:08.046Z,0.05
2019-03-22T04:29:08.363Z,0.05
2019-03-22T04:30:07.995Z,0.05
2019-03-22T04:31:10.012Z,0.05
2019-03-22T04:32:09.074Z,0.05
2019-03-22T04:33:10.953Z,0.05
2019-03-22T04:34:11.090Z,0.05
2019-03-22T04:35:11.956Z,0.05
2019-03-22T04:36:12.846Z,0.05
2019-03-22T04:37:13.077Z,0.05
2019-03-22T04:38:13.217Z,0.05
2019-03-22T04:39:13.231Z,0.05
2019-03-22T04:40:14.222Z,0.05
2019-03-22T04:41:14.285Z,0.05
2019-03-22T04:42:14.359Z,0.05
2019-03-22T04:43:14.421Z,0.05
2019-03-22T04:44:14.537Z,0.09
2019-03-22T04:45:14.599Z,0.09
2019-03-22T04:46:15.465Z,0.14
2019-03-22T04:47:16.396Z,0.18
2019-03-22T04:48:17.335Z,0.18
2019-03-22T04:48:25.858Z,0.18
2019-03-22T04:49:27.395Z,0.22
2019-03-22T04:50:27.719Z,0.22
2019-03-22T04:51:26.683Z,0.27
2019-03-22T04:52:27.736Z,0.36
2019-03-22T04:53:27.993Z,0.41
2019-03-22T04:54:28.955Z,0.50
2019-03-22T04:55:29.820Z,0.63
2019-03-22T04:56:30.674Z,0.72
2019-03-22T04:57:31.479Z,0.90
2019-03-22T04:58:31.551Z,1.12
2019-03-22T04:59:32.299Z,1.35
2019-03-22T05:00:33.271Z,1.62
2019-03-22T05:01:33.380Z,1.89
2019-03-22T05:02:33.541Z,2.34
2019-03-22T05:03:33.841Z,2.84
2019-03-22T05:04:34.740Z,3.46
2019-03-22T05:05:35.523Z,4.23
2019-03-22T05:06:35.544Z,5.18
2019-03-22T05:07:35.929Z,6.26
2019-03-22T05:08:36.747Z,7.65
2019-03-22T05:09:36.855Z,9.27
2019-03-22T05:10:36.885Z,11.39
2019-03-22T05:11:37.762Z,13.95
2019-03-22T05:12:37.860Z,16.92
2019-03-22T05:13:38.852Z,20.43
2019-03-22T05:14:38.223Z,24.30
2019-03-22T05:15:41.047Z,28.98
2019-03-22T05:16:40.877Z,33.84
2019-03-22T05:17:40.960Z,39.42
2019-03-22T05:18:43.951Z,45.36
2019-03-22T05:19:40.840Z,52.20
2019-03-22T05:20:42.703Z,59.76
2019-03-22T05:21:42.760Z,68.40
2019-03-22T05:22:42.794Z,77.76
2019-03-22T05:23:43.752Z,88.56
2019-03-22T05:24:44.552Z,100.80
2019-03-22T05:25:45.479Z,114.48
2019-03-22T05:26:46.452Z,129.60
2019-03-22T05:27:47.287Z,145.44
2019-03-22T05:28:47.464Z,160.56
2019-03-22T05:29:48.333Z,177.12
2019-03-22T05:30:49.203Z,194.40
2019-03-22T05:31:50.027Z,213.12
2019-03-22T05:32:50.999Z,233.28
2019-03-22T05:32:59.603Z,236.16
2019-03-22T05:34:01.448Z,257.76
2019-03-22T05:35:01.500Z,282.24
2019-03-22T05:36:02.391Z,306.72
2019-03-22T05:37:03.367Z,331.20
2019-03-22T05:38:04.236Z,360.00
2019-03-22T05:39:05.078Z,385.92
2019-03-22T05:40:05.849Z,414.72
2019-03-22T05:41:06.368Z,443.52
2019-03-22T05:42:06.811Z,472.32
2019-03-22T05:43:06.802Z,504.00
2019-03-22T05:44:06.908Z,535.68
2019-03-22T05:45:07.033Z,564.48
2019-03-22T05:46:07.554Z,590.40
2019-03-22T05:47:08.438Z,613.44
2019-03-22T05:48:09.272Z,642.24
2019-03-22T05:49:09.368Z,673.92
2019-03-22T05:50:10.334Z,702.72
2019-03-22T05:51:10.493Z,731.52
2019-03-22T05:52:11.256Z,760.32
2019-03-22T05:53:12.107Z,783.36
2019-03-22T05:54:12.884Z,817.92
2019-03-22T05:55:13.818Z,840.96
2019-03-22T05:56:14.235Z,864.00
2019-03-22T05:57:15.069Z,898.56
2019-03-22T05:58:16.082Z,927.36
2019-03-22T05:59:16.252Z,961.92
2019-03-22T06:00:17.011Z,996.48
2019-03-22T06:01:17.167Z,1065.60
2019-03-22T06:02:17.588Z,1094.40
2019-03-22T06:03:17.825Z,1117.44
2019-03-22T06:04:18.224Z,1146.24
2019-03-22T06:05:18.434Z,1175.04
2019-03-22T06:06:19.411Z,1203.84
2019-03-22T06:07:19.467Z,1221.12
2019-03-22T06:08:19.768Z,1226.88
2019-03-22T06:09:19.621Z,1267.20
2019-03-22T06:10:21.470Z,1319.04
2019-03-22T06:11:22.070Z,1376.64
2019-03-22T06:12:22.711Z,1428.48
2019-03-22T06:13:23.610Z,1474.56
2019-03-22T06:14:24.024Z,1509.12
2019-03-22T06:15:24.937Z,1532.16
2019-03-22T06:15:35.067Z,1532.16
2019-03-22T06:16:35.853Z,1555.20
2019-03-22T06:17:36.946Z,1566.72
2019-03-22T06:18:36.962Z,1589.76
2019-03-22T06:19:37.268Z,1612.80
2019-03-22T06:20:38.067Z,1647.36
2019-03-22T06:21:38.853Z,1681.92
2019-03-22T06:22:39.132Z,1728.00
2019-03-22T06:23:39.353Z,1762.56
2019-03-22T06:24:40.108Z,1808.64
2019-03-22T06:25:40.852Z,1854.72
2019-03-22T06:26:41.722Z,1889.28
2019-03-22T06:27:42.547Z,1912.32
2019-03-22T06:28:43.417Z,1923.84
2019-03-22T06:29:53.607Z,1935.36
2019-03-22T06:30:44.061Z,1958.40
2019-03-22T06:31:45.981Z,1958.40
2019-03-22T06:32:46.941Z,1935.36
2019-03-22T06:33:47.807Z,1900.80
2019-03-22T06:34:47.755Z,1889.28
2019-03-22T06:35:49.121Z,1923.84
2019-03-22T06:36:49.867Z,1969.92
2019-03-22T06:37:49.906Z,2016.00
2019-03-22T06:38:50.165Z,2050.56
2019-03-22T06:39:50.441Z,2096.64
2019-03-22T06:40:51.141Z,2154.24
2019-03-22T06:41:52.021Z,2200.32
2019-03-22T06:42:52.117Z,2223.36
2019-03-22T06:43:52.137Z,2234.88
2019-03-22T06:44:51.455Z,2234.88
2019-03-22T06:45:53.335Z,2246.40
2019-03-22T06:46:53.479Z,2257.92
2019-03-22T06:47:54.152Z,2292.48
2019-03-22T06:48:54.921Z,2338.56
2019-03-22T06:49:55.180Z,2361.60
2019-03-22T06:50:55.873Z,2384.64
2019-03-22T06:51:56.863Z,2419.20
2019-03-22T06:52:57.165Z,2476.80
2019-03-22T06:53:57.561Z,2534.40
2019-03-22T06:54:58.551Z,2580.48
2019-03-22T06:55:58.777Z,2615.04
2019-03-22T06:56:58.807Z,2649.60
2019-03-22T06:57:58.943Z,2661.12
2019-03-22T06:58:59.852Z,2707.20
2019-03-22T06:59:08.404Z,2707.20
2019-03-22T07:00:09.611Z,2695.68
2019-03-22T07:01:10.374Z,2718.72
2019-03-22T07:02:11.325Z,2776.32
2019-03-22T07:03:11.945Z,2810.88
2019-03-22T07:04:12.919Z,2810.88
2019-03-22T07:05:13.944Z,2822.40
2019-03-22T07:06:13.078Z,2810.88
2019-03-22T07:07:15.077Z,2730.24
2019-03-22T07:08:15.129Z,2787.84
2019-03-22T07:09:15.971Z,2914.56
2019-03-22T07:10:16.056Z,2972.16
2019-03-22T07:11:16.096Z,2995.20
2019-03-22T07:12:16.810Z,3041.28
2019-03-22T07:13:16.918Z,3064.32
2019-03-22T07:14:17.787Z,3110.40
2019-03-22T07:15:18.392Z,3248.64
2019-03-22T07:16:18.959Z,3363.84
2019-03-22T07:17:19.195Z,3363.84
2019-03-22T07:18:19.210Z,3409.92
2019-03-22T07:19:19.201Z,3456.00
2019-03-22T07:20:19.695Z,3432.96
2019-03-22T07:21:20.593Z,3479.04
2019-03-22T07:22:20.622Z,3386.88
2019-03-22T07:23:20.686Z,3409.92
2019-03-22T07:24:20.716Z,3409.92
2019-03-22T07:25:21.446Z,3294.72
2019-03-22T07:26:21.658Z,3525.12
2019-03-22T07:27:22.578Z,3824.64
2019-03-22T07:28:23.366Z,4216.32
2019-03-22T07:29:24.373Z,4561.92
2019-03-22T07:30:24.645Z,4124.16
2019-03-22T07:31:24.761Z,3847.68
2019-03-22T07:32:25.573Z,3870.72
2019-03-22T07:33:25.970Z,3939.84
2019-03-22T07:34:26.808Z,3985.92
2019-03-22T07:35:27.698Z,4515.84
2019-03-22T07:36:27.859Z,5045.76
2019-03-22T07:37:28.361Z,4861.44
2019-03-22T07:38:29.266Z,5160.96
2019-03-22T07:39:30.199Z,5160.96
2019-03-22T07:40:30.572Z,4999.68
2019-03-22T07:40:39.604Z,4976.64
2019-03-22T07:41:41.320Z,4999.68
2019-03-22T07:42:41.571Z,4976.64
2019-03-22T07:43:42.454Z,5414.40
2019-03-22T07:44:43.307Z,6727.68
2019-03-22T07:45:44.254Z,7557.12
2019-03-22T07:46:45.128Z,8294.40
2019-03-22T07:47:45.978Z,10828.80
2019-03-22T07:48:46.923Z,13639.68
2019-03-22T07:49:47.778Z,16220.16
2019-03-22T07:50:48.565Z,15759.36
2019-03-22T07:51:49.529Z,15206.40
2019-03-22T07:52:50.475Z,16128.00
2019-03-22T07:53:50.720Z,15022.08
2019-03-22T07:54:51.450Z,14653.44
2019-03-22T07:55:52.400Z,14745.60
2019-03-22T07:56:53.398Z,14929.92
2019-03-22T07:57:52.500Z,14745.60
2019-03-22T07:58:53.861Z,14653.44
2019-03-22T07:59:54.275Z,14376.96
2019-03-22T08:00:54.486Z,13547.52
2019-03-22T08:01:55.410Z,11566.08
2019-03-22T08:02:56.342Z,12994.56
2019-03-22T08:03:56.405Z,12994.56
2019-03-22T08:04:57.098Z,14100.48
2019-03-22T08:05:57.146Z,13824.00
2019-03-22T08:06:57.982Z,14100.48
2019-03-22T08:07:58.774Z,14192.64
2019-03-22T08:08:59.677Z,14653.44
2019-03-22T08:10:00.095Z,15482.88
2019-03-22T08:11:00.402Z,15759.36
2019-03-22T08:12:00.300Z,15759.36
2019-03-22T08:13:01.339Z,15667.20
2019-03-22T08:14:01.306Z,16035.84
2019-03-22T08:15:03.197Z,13363.20
2019-03-22T08:16:04.154Z,15390.72
2019-03-22T08:17:05.012Z,14745.60
2019-03-22T08:18:05.140Z,14100.48
2019-03-22T08:19:06.028Z,13178.88
2019-03-22T08:20:06.309Z,12994.56
2019-03-22T08:21:07.225Z,9538.56
2019-03-22T08:22:08.205Z,13824.00
2019-03-22T08:23:08.358Z,13271.04
2019-03-22T08:24:08.609Z,14100.48
2019-03-22T08:25:08.629Z,14192.64
2019-03-22T08:25:17.291Z,14469.12
2019-03-22T08:26:18.183Z,15022.08
2019-03-22T08:27:20.058Z,16035.84
2019-03-22T08:28:19.944Z,19722.24
2019-03-22T08:29:21.266Z,20275.20
2019-03-22T08:30:21.183Z,21841.92
2019-03-22T08:31:23.163Z,22118.40
2019-03-22T08:32:23.137Z,23224.32
2019-03-22T08:33:23.321Z,23961.60
2019-03-22T08:34:24.130Z,24698.88
2019-03-22T08:35:24.208Z,23777.28
2019-03-22T08:36:24.248Z,24698.88
2019-03-22T08:37:24.344Z,23500.80
2019-03-22T08:38:23.330Z,19630.08
2019-03-22T08:39:24.118Z,19630.08
2019-03-22T08:40:26.021Z,20920.32
2019-03-22T08:41:26.022Z,22947.84
2019-03-22T08:42:26.982Z,21934.08
2019-03-22T08:43:27.997Z,22210.56
2019-03-22T08:44:27.782Z,23408.64
2019-03-22T08:45:29.625Z,22947.84
2019-03-22T08:46:30.476Z,22026.24
2019-03-22T08:47:34.183Z,21012.48
2019-03-22T08:48:30.525Z,21104.64
2019-03-22T08:49:31.699Z,22302.72
2019-03-22T08:50:31.488Z,23040.00
2019-03-22T08:51:32.567Z,22763.52
2019-03-22T08:52:32.849Z,22671.36
2019-03-22T08:53:33.702Z,22210.56
2019-03-22T08:54:34.622Z,21657.60
2019-03-22T08:55:35.447Z,20828.16
2019-03-22T08:56:36.500Z,21288.96
2019-03-22T08:57:36.191Z,19998.72
2019-03-22T08:58:37.994Z,19445.76
2019-03-22T08:59:38.723Z,19814.40
2019-03-22T09:00:40.032Z,19169.28
2019-03-22T09:01:39.453Z,19261.44
2019-03-22T09:02:40.758Z,17049.60
2019-03-22T09:03:41.762Z,14376.96
2019-03-22T09:04:41.614Z,19353.60
2019-03-22T09:05:42.590Z,19353.60
2019-03-22T09:06:42.703Z,20736.00
2019-03-22T09:07:44.504Z,22302.72
2019-03-22T09:08:44.483Z,22210.56
2019-03-22T09:09:45.467Z,22671.36
2019-03-22T09:10:45.458Z,23592.96
2019-03-22T09:11:45.526Z,24514.56
2019-03-22T09:12:46.388Z,24883.20
2019-03-22T09:13:48.384Z,24698.88
2019-03-22T09:14:49.207Z,24330.24
2019-03-22T09:15:49.324Z,24698.88
2019-03-22T09:16:50.124Z,24698.88
2019-03-22T09:17:49.584Z,24145.92
2019-03-22T09:18:51.389Z,23961.60
2019-03-22T09:18:59.928Z,24145.92
2019-03-22T09:20:01.717Z,25436.16
2019-03-22T09:21:02.646Z,26726.40
2019-03-22T09:22:02.727Z,27095.04
2019-03-22T09:23:01.832Z,27095.04
2019-03-22T09:24:01.905Z,27648.00
2019-03-22T09:25:02.948Z,28385.28
2019-03-22T09:26:03.216Z,27279.36
2019-03-22T09:27:05.189Z,25067.52
2019-03-22T09:28:05.391Z,23592.96
2019-03-22T09:29:06.231Z,24330.24
2019-03-22T09:30:07.036Z,25620.48
2019-03-22T09:31:13.338Z,27279.36
2019-03-22T09:32:06.333Z,29491.20
2019-03-22T09:33:07.366Z,30228.48
2019-03-22T09:34:07.445Z,30044.16
2019-03-22T09:35:08.342Z,24698.88
2019-03-22T09:36:08.154Z,27463.68
2019-03-22T09:37:09.743Z,27279.36
2019-03-22T09:38:13.070Z,26910.72
2019-03-22T09:39:09.563Z,28200.96
2019-03-22T09:40:10.510Z,28938.24
2019-03-22T09:41:11.368Z,30228.48
2019-03-22T09:42:12.350Z,30965.76
2019-03-22T09:43:13.306Z,30781.44
2019-03-22T09:44:14.074Z,30597.12
2019-03-22T09:45:16.011Z,30781.44
2019-03-22T09:46:15.878Z,30228.48
2019-03-22T09:47:16.961Z,29859.84
2019-03-22T09:48:16.653Z,30228.48
2019-03-22T09:49:18.563Z,31703.04
2019-03-22T09:50:18.375Z,33361.92
2019-03-22T09:51:19.468Z,34467.84
2019-03-22T09:52:19.454Z,35573.76
2019-03-22T09:53:20.394Z,35758.08
2019-03-22T09:54:21.138Z,36126.72
2019-03-22T09:55:22.036Z,32071.68
2019-03-22T09:56:22.160Z,33914.88
2019-03-22T09:57:22.000Z,35020.80
2019-03-22T09:58:22.515Z,34099.20
2019-03-22T09:59:24.361Z,29122.56
2019-03-22T10:00:25.348Z,29491.20
2019-03-22T10:01:26.311Z,26542.08
2019-03-22T10:02:25.336Z,34467.84
2019-03-22T10:03:27.159Z,33730.56
2019-03-22T10:04:27.379Z,36311.04
2019-03-22T10:05:27.213Z,35942.40
2019-03-22T10:06:28.091Z,28938.24
2019-03-22T10:07:28.819Z,31150.08
2019-03-22T10:08:30.653Z,30412.80
2019-03-22T10:09:30.684Z,32808.96
2019-03-22T10:10:31.555Z,30781.44
2019-03-22T10:11:31.236Z,30044.16
2019-03-22T10:12:31.271Z,35389.44
2019-03-22T10:13:32.393Z,33546.24
2019-03-22T10:14:33.304Z,37048.32
2019-03-22T10:15:33.508Z,32071.68
2019-03-22T10:16:33.557Z,32256.00
2019-03-22T10:17:32.888Z,35205.12
2019-03-22T10:18:36.732Z,35573.76
2019-03-22T10:19:34.605Z,36311.04
2019-03-22T10:20:34.596Z,38707.20
2019-03-22T10:21:35.702Z,38707.20
2019-03-22T10:22:34.910Z,38522.88
2019-03-22T10:23:35.144Z,39444.48
2019-03-22T10:24:37.189Z,39628.80
2019-03-22T10:25:37.078Z,35758.08
2019-03-22T10:26:38.361Z,35573.76
2019-03-22T10:26:59.431Z,35205.12
2019-03-22T10:28:00.794Z,36126.72
2019-03-22T10:28:59.771Z,33546.24
2019-03-22T10:30:01.673Z,32071.68
2019-03-22T10:31:01.683Z,29122.56
2019-03-22T10:32:00.811Z,29122.56
2019-03-22T10:33:01.011Z,29675.52
2019-03-22T10:34:02.556Z,30044.16
2019-03-22T10:35:03.197Z,29306.88
2019-03-22T10:36:03.284Z,29306.88
2019-03-22T10:37:04.166Z,31150.08
2019-03-22T10:38:15.472Z,32071.68
2019-03-22T10:39:04.324Z,33361.92
2019-03-22T10:40:05.070Z,31150.08
2019-03-22T10:41:05.915Z,31150.08
2019-03-22T10:42:07.776Z,31334.40
2019-03-22T10:43:07.588Z,32071.68
2019-03-22T10:44:09.497Z,33361.92
2019-03-22T10:45:10.497Z,32808.96
2019-03-22T10:46:10.323Z,36311.04
2019-03-22T10:47:12.182Z,38154.24
2019-03-22T10:48:11.396Z,38891.52
2019-03-22T10:49:12.388Z,40919.04
2019-03-22T10:50:14.316Z,40181.76
2019-03-22T10:51:15.208Z,41840.64
2019-03-22T10:52:16.156Z,42209.28
2019-03-22T10:53:17.054Z,43499.52
2019-03-22T10:54:17.199Z,43868.16
2019-03-22T10:55:29.285Z,43868.16
2019-03-22T10:56:17.245Z,44421.12
2019-03-22T10:57:18.768Z,43683.84
2019-03-22T10:58:21.209Z,44789.76
2019-03-22T10:59:18.947Z,44421.12
2019-03-22T11:00:43.713Z,35389.44
2019-03-22T11:01:52.338Z,37416.96
2019-03-22T11:02:45.281Z,36311.04
2019-03-22T11:03:45.995Z,44052.48
2019-03-22T11:04:46.226Z,40734.72
2019-03-22T11:05:48.160Z,39813.12
2019-03-22T11:06:48.465Z,37601.28
2019-03-22T11:07:49.357Z,35758.08
2019-03-22T11:08:50.309Z,39260.16
2019-03-22T11:09:50.349Z,31703.04
2019-03-22T11:10:51.282Z,34099.20
2019-03-22T11:11:51.802Z,33546.24
2019-03-22T11:12:51.914Z,32624.64
2019-03-22T11:13:51.985Z,28200.96
2019-03-22T11:14:52.848Z,33730.56
2019-03-22T11:15:51.918Z,35020.80
2019-03-22T11:16:53.920Z,42762.24
2019-03-22T11:17:54.866Z,43683.84
2019-03-22T11:18:55.653Z,44789.76
2019-03-22T11:19:57.582Z,40181.76
2019-03-22T11:21:04.751Z,39997.44
2019-03-22T11:21:56.672Z,40550.40
2019-03-22T11:22:58.642Z,39260.16
2019-03-22T11:23:59.553Z,39444.48
2019-03-22T11:25:00.460Z,36864.00
2019-03-22T11:26:04.455Z,32993.28
2019-03-22T11:27:00.488Z,33914.88
2019-03-22T11:28:02.434Z,35020.80
2019-03-22T11:29:03.226Z,35573.76
2019-03-22T11:30:04.090Z,37416.96
2019-03-22T11:31:05.254Z,39813.12
2019-03-22T11:32:12.291Z,41656.32
2019-03-22T11:33:04.347Z,41840.64
2019-03-22T11:34:06.252Z,42577.92
2019-03-22T11:35:06.989Z,43868.16
2019-03-22T11:36:07.765Z,43868.16
2019-03-22T11:37:08.056Z,44052.48
2019-03-22T11:38:08.939Z,42024.96
2019-03-22T11:39:15.485Z,41103.36
2019-03-22T11:40:08.760Z,38154.24
2019-03-22T11:41:09.835Z,40181.76
2019-03-22T11:42:09.857Z,34652.16
2019-03-22T11:43:10.792Z,35758.08
2019-03-22T11:44:10.845Z,38338.56
2019-03-22T11:45:11.797Z,39628.80
2019-03-22T11:46:12.409Z,40181.76
2019-03-22T11:47:13.237Z,39260.16
2019-03-22T11:48:14.108Z,39075.84
2019-03-22T11:49:14.608Z,41840.64
2019-03-22T11:50:15.425Z,40366.08
2019-03-22T11:51:16.409Z,40366.08
2019-03-22T11:51:27.944Z,40366.08
2019-03-22T11:52:29.221Z,42762.24
2019-03-22T11:53:30.167Z,41287.68
2019-03-22T11:54:30.223Z,43130.88
2019-03-22T11:55:30.625Z,41472.00
2019-03-22T11:56:31.552Z,41472.00
2019-03-22T11:57:31.888Z,38154.24
2019-03-22T11:58:32.051Z,38154.24
2019-03-22T11:59:32.148Z,35389.44
2019-03-22T12:00:32.906Z,34283.52
2019-03-22T12:01:33.009Z,35758.08
2019-03-22T12:02:33.934Z,39813.12
2019-03-22T12:03:34.760Z,39997.44
2019-03-22T12:04:35.731Z,37969.92
2019-03-22T12:05:40.486Z,34652.16
2019-03-22T12:06:36.606Z,33546.24
2019-03-22T12:07:38.600Z,27832.32
2019-03-22T12:08:39.583Z,34836.48
2019-03-22T12:09:39.589Z,34099.20
2019-03-22T12:10:40.421Z,35020.80
2019-03-22T12:11:42.227Z,35020.80
2019-03-22T12:12:41.260Z,37232.64
2019-03-22T12:13:43.292Z,28938.24
2019-03-22T12:14:43.289Z,25804.80
2019-03-22T12:15:44.180Z,29491.20
2019-03-22T12:16:44.993Z,33914.88
2019-03-22T12:17:45.860Z,37048.32
2019-03-22T12:18:46.717Z,28385.28
2019-03-22T12:19:47.636Z,30597.12
2019-03-22T12:20:48.565Z,35942.40
2019-03-22T12:21:48.708Z,37601.28
2019-03-22T12:22:49.587Z,33546.24
2019-03-22T12:23:50.512Z,32071.68